sensor_id;sensor_type;location;lat;lon;timestamp;P1;durP1;ratioP1;P2;durP2;ratioP2
50815;SDS011;39717;47.324;8.788;2022-08-19T00:01:32;20.13;;;14.73;;
50815;SDS011;39717;47.324;8.788;2022-08-19T00:04:06;20.30;;;15.53;;
50815;SDS011;39717;47.324;8.788;2022-08-19T00:06:33;20.60;;;15.47;;
50815;SDS011;39717;47.324;8.788;2022-08-19T00:09:00;18.83;;;15.10;;
50815;SDS011;39717;47.324;8.788;2022-08-19T00:11:27;17.73;;;14.33;;
50815;SDS011;39717;47.324;8.788;2022-08-19T00:13:54;18.17;;;14.30;;
50815;SDS011;39717;47.324;8.788;2022-08-19T00:16:22;17.47;;;13.57;;
50815;SDS011;39717;47.324;8.788;2022-08-19T00:18:48;17.23;;;13.40;;
50815;SDS011;39717;47.324;8.788;2022-08-19T00:21:14;17.27;;;14.00;;
50815;SDS011;39717;47.324;8.788;2022-08-19T00:23:41;16.47;;;13.57;;
50815;SDS011;39717;47.324;8.788;2022-08-19T00:26:08;17.20;;;13.73;;
50815;SDS011;39717;47.324;8.788;2022-08-19T00:28:35;15.53;;;11.80;;
50815;SDS011;39717;47.324;8.788;2022-08-19T00:31:04;14.23;;;12.07;;
50815;SDS011;39717;47.324;8.788;2022-08-19T00:33:32;16.27;;;12.67;;
50815;SDS011;39717;47.324;8.788;2022-08-19T00:35:58;18.07;;;13.23;;
50815;SDS011;39717;47.324;8.788;2022-08-19T00:38:25;18.70;;;12.80;;
50815;SDS011;39717;47.324;8.788;2022-08-19T00:40:51;17.37;;;12.77;;
50815;SDS011;39717;47.324;8.788;2022-08-19T00:43:18;19.63;;;13.87;;
50815;SDS011;39717;47.324;8.788;2022-08-19T00:45:45;18.57;;;14.33;;
50815;SDS011;39717;47.324;8.788;2022-08-19T00:48:13;20.80;;;14.30;;
50815;SDS011;39717;47.324;8.788;2022-08-19T00:50:40;22.37;;;14.13;;
50815;SDS011;39717;47.324;8.788;2022-08-19T00:53:09;22.07;;;14.80;;
50815;SDS011;39717;47.324;8.788;2022-08-19T00:55:35;17.57;;;12.87;;
50815;SDS011;39717;47.324;8.788;2022-08-19T00:58:07;14.47;;;11.97;;
50815;SDS011;39717;47.324;8.788;2022-08-19T01:00:34;16.67;;;11.70;;
50815;SDS011;39717;47.324;8.788;2022-08-19T01:03:03;16.77;;;12.17;;
50815;SDS011;39717;47.324;8.788;2022-08-19T01:05:30;16.23;;;12.40;;
50815;SDS011;39717;47.324;8.788;2022-08-19T01:07:58;17.97;;;12.37;;
50815;SDS011;39717;47.324;8.788;2022-08-19T01:10:26;19.87;;;14.00;;
50815;SDS011;39717;47.324;8.788;2022-08-19T01:12:53;20.03;;;13.97;;
50815;SDS011;39717;47.324;8.788;2022-08-19T01:15:21;18.60;;;13.73;;
50815;SDS011;39717;47.324;8.788;2022-08-19T01:17:49;19.03;;;12.93;;
50815;SDS011;39717;47.324;8.788;2022-08-19T01:20:18;19.50;;;13.60;;
50815;SDS011;39717;47.324;8.788;2022-08-19T01:22:49;19.10;;;13.13;;
50815;SDS011;39717;47.324;8.788;2022-08-19T01:25:18;20.60;;;13.63;;
50815;SDS011;39717;47.324;8.788;2022-08-19T01:27:45;16.80;;;13.43;;
50815;SDS011;39717;47.324;8.788;2022-08-19T01:30:24;20.57;;;14.37;;
50815;SDS011;39717;47.324;8.788;2022-08-19T01:32:51;22.70;;;14.67;;
50815;SDS011;39717;47.324;8.788;2022-08-19T01:35:17;19.43;;;14.33;;
50815;SDS011;39717;47.324;8.788;2022-08-19T01:40:12;16.13;;;12.70;;
50815;SDS011;39717;47.324;8.788;2022-08-19T01:42:38;19.47;;;13.73;;
50815;SDS011;39717;47.324;8.788;2022-08-19T01:45:05;18.07;;;13.33;;
50815;SDS011;39717;47.324;8.788;2022-08-19T01:47:33;18.47;;;13.20;;
50815;SDS011;39717;47.324;8.788;2022-08-19T01:50:00;18.80;;;14.00;;
50815;SDS011;39717;47.324;8.788;2022-08-19T01:52:26;14.90;;;12.03;;
50815;SDS011;39717;47.324;8.788;2022-08-19T01:54:52;17.43;;;13.03;;
50815;SDS011;39717;47.324;8.788;2022-08-19T01:57:18;17.20;;;13.03;;
50815;SDS011;39717;47.324;8.788;2022-08-19T01:59:45;16.83;;;12.57;;
50815;SDS011;39717;47.324;8.788;2022-08-19T02:02:11;14.97;;;12.10;;
50815;SDS011;39717;47.324;8.788;2022-08-19T02:04:37;19.37;;;12.83;;
50815;SDS011;39717;47.324;8.788;2022-08-19T02:07:03;16.50;;;12.67;;
50815;SDS011;39717;47.324;8.788;2022-08-19T02:09:30;17.17;;;12.13;;
50815;SDS011;39717;47.324;8.788;2022-08-19T02:11:57;16.23;;;11.67;;
50815;SDS011;39717;47.324;8.788;2022-08-19T02:14:23;18.50;;;13.47;;
50815;SDS011;39717;47.324;8.788;2022-08-19T02:16:50;16.37;;;12.27;;
50815;SDS011;39717;47.324;8.788;2022-08-19T02:19:16;17.37;;;12.90;;
50815;SDS011;39717;47.324;8.788;2022-08-19T02:21:42;22.00;;;13.50;;
50815;SDS011;39717;47.324;8.788;2022-08-19T02:24:09;19.50;;;13.40;;
50815;SDS011;39717;47.324;8.788;2022-08-19T02:26:35;17.73;;;13.33;;
50815;SDS011;39717;47.324;8.788;2022-08-19T02:29:01;22.33;;;14.33;;
50815;SDS011;39717;47.324;8.788;2022-08-19T02:31:27;19.90;;;13.30;;
50815;SDS011;39717;47.324;8.788;2022-08-19T02:33:54;17.77;;;12.23;;
50815;SDS011;39717;47.324;8.788;2022-08-19T02:36:20;17.47;;;12.87;;
50815;SDS011;39717;47.324;8.788;2022-08-19T02:38:47;16.30;;;11.97;;
50815;SDS011;39717;47.324;8.788;2022-08-19T02:41:15;17.10;;;12.07;;
50815;SDS011;39717;47.324;8.788;2022-08-19T02:43:41;20.17;;;12.50;;
50815;SDS011;39717;47.324;8.788;2022-08-19T02:46:14;15.93;;;12.30;;
50815;SDS011;39717;47.324;8.788;2022-08-19T02:48:46;17.50;;;12.33;;
50815;SDS011;39717;47.324;8.788;2022-08-19T02:51:20;16.47;;;12.10;;
50815;SDS011;39717;47.324;8.788;2022-08-19T02:53:47;16.43;;;12.03;;
50815;SDS011;39717;47.324;8.788;2022-08-19T02:56:13;15.93;;;11.20;;
50815;SDS011;39717;47.324;8.788;2022-08-19T02:58:39;17.13;;;11.37;;
50815;SDS011;39717;47.324;8.788;2022-08-19T03:01:05;13.63;;;10.80;;
50815;SDS011;39717;47.324;8.788;2022-08-19T03:03:32;16.37;;;11.93;;
50815;SDS011;39717;47.324;8.788;2022-08-19T03:06:05;16.47;;;11.73;;
50815;SDS011;39717;47.324;8.788;2022-08-19T03:08:31;15.37;;;11.30;;
50815;SDS011;39717;47.324;8.788;2022-08-19T03:10:57;25.23;;;14.03;;
50815;SDS011;39717;47.324;8.788;2022-08-19T03:13:24;16.57;;;12.00;;
50815;SDS011;39717;47.324;8.788;2022-08-19T03:15:51;15.13;;;10.97;;
50815;SDS011;39717;47.324;8.788;2022-08-19T03:18:17;19.00;;;12.77;;
50815;SDS011;39717;47.324;8.788;2022-08-19T03:20:44;17.47;;;11.07;;
50815;SDS011;39717;47.324;8.788;2022-08-19T03:23:11;16.93;;;11.67;;
50815;SDS011;39717;47.324;8.788;2022-08-19T03:25:41;15.90;;;11.57;;
50815;SDS011;39717;47.324;8.788;2022-08-19T03:28:09;13.43;;;11.37;;
50815;SDS011;39717;47.324;8.788;2022-08-19T03:30:37;13.20;;;9.93;;
50815;SDS011;39717;47.324;8.788;2022-08-19T03:33:06;13.97;;;10.33;;
50815;SDS011;39717;47.324;8.788;2022-08-19T03:35:32;14.87;;;10.30;;
50815;SDS011;39717;47.324;8.788;2022-08-19T03:38:02;15.20;;;11.47;;
50815;SDS011;39717;47.324;8.788;2022-08-19T03:40:28;15.80;;;11.87;;
50815;SDS011;39717;47.324;8.788;2022-08-19T03:42:56;16.97;;;11.57;;
50815;SDS011;39717;47.324;8.788;2022-08-19T03:45:23;13.13;;;10.43;;
50815;SDS011;39717;47.324;8.788;2022-08-19T03:47:49;16.90;;;10.93;;
50815;SDS011;39717;47.324;8.788;2022-08-19T03:50:15;12.47;;;9.33;;
50815;SDS011;39717;47.324;8.788;2022-08-19T03:52:47;15.07;;;10.30;;
50815;SDS011;39717;47.324;8.788;2022-08-19T03:55:13;15.53;;;11.67;;
50815;SDS011;39717;47.324;8.788;2022-08-19T03:57:39;22.93;;;13.27;;
50815;SDS011;39717;47.324;8.788;2022-08-19T04:00:05;16.97;;;8.80;;
50815;SDS011;39717;47.324;8.788;2022-08-19T04:02:32;9.50;;;6.67;;
50815;SDS011;39717;47.324;8.788;2022-08-19T04:04:58;17.10;;;6.87;;
50815;SDS011;39717;47.324;8.788;2022-08-19T04:07:25;22.03;;;9.13;;
50815;SDS011;39717;47.324;8.788;2022-08-19T04:09:51;21.97;;;10.60;;
50815;SDS011;39717;47.324;8.788;2022-08-19T04:12:18;18.07;;;10.43;;
50815;SDS011;39717;47.324;8.788;2022-08-19T04:14:46;13.63;;;9.10;;
50815;SDS011;39717;47.324;8.788;2022-08-19T04:17:12;6.93;;;5.33;;
50815;SDS011;39717;47.324;8.788;2022-08-19T04:19:39;5.57;;;3.83;;
50815;SDS011;39717;47.324;8.788;2022-08-19T04:22:08;6.27;;;3.93;;
50815;SDS011;39717;47.324;8.788;2022-08-19T04:24:36;5.67;;;5.03;;
50815;SDS011;39717;47.324;8.788;2022-08-19T04:27:02;10.47;;;6.50;;
50815;SDS011;39717;47.324;8.788;2022-08-19T04:29:30;8.10;;;5.13;;
50815;SDS011;39717;47.324;8.788;2022-08-19T04:31:57;4.27;;;2.87;;
50815;SDS011;39717;47.324;8.788;2022-08-19T04:34:25;4.90;;;3.63;;
50815;SDS011;39717;47.324;8.788;2022-08-19T04:36:54;5.27;;;3.30;;
50815;SDS011;39717;47.324;8.788;2022-08-19T04:39:23;6.17;;;4.97;;
50815;SDS011;39717;47.324;8.788;2022-08-19T04:42:13;8.53;;;5.63;;
50815;SDS011;39717;47.324;8.788;2022-08-19T04:44:59;11.73;;;6.97;;
50815;SDS011;39717;47.324;8.788;2022-08-19T04:47:25;12.00;;;7.53;;
50815;SDS011;39717;47.324;8.788;2022-08-19T04:49:51;16.90;;;9.57;;
50815;SDS011;39717;47.324;8.788;2022-08-19T04:52:18;17.43;;;11.33;;
50815;SDS011;39717;47.324;8.788;2022-08-19T04:54:44;20.87;;;12.10;;
50815;SDS011;39717;47.324;8.788;2022-08-19T04:57:10;31.00;;;14.73;;
50815;SDS011;39717;47.324;8.788;2022-08-19T04:59:37;24.40;;;13.00;;
50815;SDS011;39717;47.324;8.788;2022-08-19T05:02:03;40.43;;;20.23;;
50815;SDS011;39717;47.324;8.788;2022-08-19T05:04:30;29.73;;;16.97;;
50815;SDS011;39717;47.324;8.788;2022-08-19T05:06:58;28.27;;;16.73;;
50815;SDS011;39717;47.324;8.788;2022-08-19T05:09:24;27.00;;;16.30;;
50815;SDS011;39717;47.324;8.788;2022-08-19T05:11:50;35.87;;;20.17;;
50815;SDS011;39717;47.324;8.788;2022-08-19T05:14:18;31.13;;;16.83;;
50815;SDS011;39717;47.324;8.788;2022-08-19T05:16:46;37.37;;;18.10;;
50815;SDS011;39717;47.324;8.788;2022-08-19T05:19:12;40.37;;;17.93;;
50815;SDS011;39717;47.324;8.788;2022-08-19T05:21:56;34.97;;;16.60;;
50815;SDS011;39717;47.324;8.788;2022-08-19T05:24:40;37.50;;;18.17;;
50815;SDS011;39717;47.324;8.788;2022-08-19T05:27:07;37.03;;;17.10;;
50815;SDS011;39717;47.324;8.788;2022-08-19T05:29:33;37.93;;;17.17;;
50815;SDS011;39717;47.324;8.788;2022-08-19T05:32:00;40.27;;;19.33;;
50815;SDS011;39717;47.324;8.788;2022-08-19T05:34:26;37.97;;;17.33;;
50815;SDS011;39717;47.324;8.788;2022-08-19T05:36:54;36.70;;;18.57;;
50815;SDS011;39717;47.324;8.788;2022-08-19T05:39:23;42.37;;;20.63;;
50815;SDS011;39717;47.324;8.788;2022-08-19T05:41:51;38.03;;;20.00;;
50815;SDS011;39717;47.324;8.788;2022-08-19T05:44:18;34.97;;;19.43;;
50815;SDS011;39717;47.324;8.788;2022-08-19T05:46:45;39.30;;;18.23;;
50815;SDS011;39717;47.324;8.788;2022-08-19T05:49:12;32.73;;;18.27;;
50815;SDS011;39717;47.324;8.788;2022-08-19T05:51:39;39.83;;;20.37;;
50815;SDS011;39717;47.324;8.788;2022-08-19T05:54:05;38.17;;;20.23;;
50815;SDS011;39717;47.324;8.788;2022-08-19T05:56:34;41.67;;;20.17;;
50815;SDS011;39717;47.324;8.788;2022-08-19T05:59:04;41.17;;;21.60;;
50815;SDS011;39717;47.324;8.788;2022-08-19T06:01:34;33.60;;;19.30;;
50815;SDS011;39717;47.324;8.788;2022-08-19T06:04:01;39.20;;;19.00;;
50815;SDS011;39717;47.324;8.788;2022-08-19T06:06:27;32.53;;;17.97;;
50815;SDS011;39717;47.324;8.788;2022-08-19T06:08:54;26.60;;;15.30;;
50815;SDS011;39717;47.324;8.788;2022-08-19T06:11:25;27.83;;;18.10;;
50815;SDS011;39717;47.324;8.788;2022-08-19T06:14:01;25.20;;;15.83;;
50815;SDS011;39717;47.324;8.788;2022-08-19T06:16:27;26.40;;;15.77;;
50815;SDS011;39717;47.324;8.788;2022-08-19T06:18:57;21.13;;;13.73;;
50815;SDS011;39717;47.324;8.788;2022-08-19T06:21:25;25.00;;;14.27;;
50815;SDS011;39717;47.324;8.788;2022-08-19T06:23:52;20.87;;;12.90;;
50815;SDS011;39717;47.324;8.788;2022-08-19T06:26:20;27.03;;;14.03;;
50815;SDS011;39717;47.324;8.788;2022-08-19T06:28:47;22.03;;;13.13;;
50815;SDS011;39717;47.324;8.788;2022-08-19T06:31:14;24.07;;;13.67;;
50815;SDS011;39717;47.324;8.788;2022-08-19T06:33:41;23.60;;;14.13;;
50815;SDS011;39717;47.324;8.788;2022-08-19T06:36:15;24.77;;;14.27;;
50815;SDS011;39717;47.324;8.788;2022-08-19T06:38:42;28.03;;;14.57;;
50815;SDS011;39717;47.324;8.788;2022-08-19T06:41:08;71.10;;;33.20;;
50815;SDS011;39717;47.324;8.788;2022-08-19T06:43:35;63.43;;;31.73;;
50815;SDS011;39717;47.324;8.788;2022-08-19T06:46:01;64.13;;;32.10;;
50815;SDS011;39717;47.324;8.788;2022-08-19T06:48:29;64.43;;;31.93;;
50815;SDS011;39717;47.324;8.788;2022-08-19T06:50:55;170.87;;;42.27;;
50815;SDS011;39717;47.324;8.788;2022-08-19T06:53:21;73.50;;;36.07;;
50815;SDS011;39717;47.324;8.788;2022-08-19T06:55:47;68.50;;;33.03;;
50815;SDS011;39717;47.324;8.788;2022-08-19T06:58:20;292.57;;;51.43;;
50815;SDS011;39717;47.324;8.788;2022-08-19T07:00:46;62.93;;;31.80;;
50815;SDS011;39717;47.324;8.788;2022-08-19T07:03:13;67.50;;;32.33;;
50815;SDS011;39717;47.324;8.788;2022-08-19T07:05:40;57.93;;;30.17;;
50815;SDS011;39717;47.324;8.788;2022-08-19T07:08:06;64.90;;;32.17;;
50815;SDS011;39717;47.324;8.788;2022-08-19T07:10:33;68.67;;;28.67;;
50815;SDS011;39717;47.324;8.788;2022-08-19T07:13:00;57.67;;;23.73;;
50815;SDS011;39717;47.324;8.788;2022-08-19T07:15:26;27.67;;;15.60;;
50815;SDS011;39717;47.324;8.788;2022-08-19T07:17:52;32.27;;;17.37;;
50815;SDS011;39717;47.324;8.788;2022-08-19T07:20:19;28.07;;;15.17;;
50815;SDS011;39717;47.324;8.788;2022-08-19T07:22:45;35.13;;;17.13;;
50815;SDS011;39717;47.324;8.788;2022-08-19T07:25:12;37.37;;;17.23;;
50815;SDS011;39717;47.324;8.788;2022-08-19T07:27:38;39.03;;;19.83;;
50815;SDS011;39717;47.324;8.788;2022-08-19T07:30:04;62.73;;;38.30;;
50815;SDS011;39717;47.324;8.788;2022-08-19T07:32:31;32.37;;;16.10;;
50815;SDS011;39717;47.324;8.788;2022-08-19T07:34:57;51.57;;;29.80;;
50815;SDS011;39717;47.324;8.788;2022-08-19T07:37:25;48.10;;;27.10;;
50815;SDS011;39717;47.324;8.788;2022-08-19T07:39:54;45.03;;;23.53;;
50815;SDS011;39717;47.324;8.788;2022-08-19T07:42:20;47.43;;;23.33;;
50815;SDS011;39717;47.324;8.788;2022-08-19T07:44:46;38.13;;;21.30;;
50815;SDS011;39717;47.324;8.788;2022-08-19T07:47:12;35.97;;;21.43;;
50815;SDS011;39717;47.324;8.788;2022-08-19T07:49:40;32.57;;;17.53;;
50815;SDS011;39717;47.324;8.788;2022-08-19T07:52:08;30.57;;;15.73;;
50815;SDS011;39717;47.324;8.788;2022-08-19T07:54:36;58.70;;;33.43;;
50815;SDS011;39717;47.324;8.788;2022-08-19T07:57:03;50.40;;;32.03;;
50815;SDS011;39717;47.324;8.788;2022-08-19T07:59:29;32.10;;;21.07;;
50815;SDS011;39717;47.324;8.788;2022-08-19T08:01:55;47.27;;;28.23;;
50815;SDS011;39717;47.324;8.788;2022-08-19T08:04:22;132.73;;;41.67;;
50815;SDS011;39717;47.324;8.788;2022-08-19T08:07:07;27.07;;;15.37;;
50815;SDS011;39717;47.324;8.788;2022-08-19T08:09:52;24.13;;;16.50;;
50815;SDS011;39717;47.324;8.788;2022-08-19T08:12:21;24.57;;;14.00;;
50815;SDS011;39717;47.324;8.788;2022-08-19T08:14:50;30.43;;;14.30;;
50815;SDS011;39717;47.324;8.788;2022-08-19T08:17:18;23.50;;;13.27;;
50815;SDS011;39717;47.324;8.788;2022-08-19T08:19:44;25.40;;;13.40;;
50815;SDS011;39717;47.324;8.788;2022-08-19T08:22:13;27.30;;;15.30;;
50815;SDS011;39717;47.324;8.788;2022-08-19T08:25:10;28.37;;;15.87;;
50815;SDS011;39717;47.324;8.788;2022-08-19T08:27:41;27.30;;;16.30;;
50815;SDS011;39717;47.324;8.788;2022-08-19T08:30:08;27.43;;;15.57;;
50815;SDS011;39717;47.324;8.788;2022-08-19T08:32:35;22.27;;;15.17;;
50815;SDS011;39717;47.324;8.788;2022-08-19T08:35:03;25.23;;;16.20;;
50815;SDS011;39717;47.324;8.788;2022-08-19T08:37:29;21.80;;;13.83;;
50815;SDS011;39717;47.324;8.788;2022-08-19T08:39:55;25.83;;;15.43;;
50815;SDS011;39717;47.324;8.788;2022-08-19T08:42:30;31.47;;;16.03;;
50815;SDS011;39717;47.324;8.788;2022-08-19T08:44:59;27.83;;;15.53;;
50815;SDS011;39717;47.324;8.788;2022-08-19T08:47:29;29.87;;;15.73;;
50815;SDS011;39717;47.324;8.788;2022-08-19T08:49:59;24.57;;;16.50;;
50815;SDS011;39717;47.324;8.788;2022-08-19T08:52:28;24.67;;;14.53;;
50815;SDS011;39717;47.324;8.788;2022-08-19T08:54:55;27.47;;;16.07;;
50815;SDS011;39717;47.324;8.788;2022-08-19T08:59:49;29.80;;;17.23;;
50815;SDS011;39717;47.324;8.788;2022-08-19T09:02:17;35.67;;;18.43;;
50815;SDS011;39717;47.324;8.788;2022-08-19T09:04:43;32.87;;;19.07;;
50815;SDS011;39717;47.324;8.788;2022-08-19T09:09:40;35.00;;;20.33;;
50815;SDS011;39717;47.324;8.788;2022-08-19T09:12:16;34.10;;;18.33;;
50815;SDS011;39717;47.324;8.788;2022-08-19T09:14:48;31.90;;;17.93;;
50815;SDS011;39717;47.324;8.788;2022-08-19T09:17:16;40.93;;;19.73;;
50815;SDS011;39717;47.324;8.788;2022-08-19T09:22:16;43.10;;;19.63;;
50815;SDS011;39717;47.324;8.788;2022-08-19T09:24:42;37.33;;;19.87;;
50815;SDS011;39717;47.324;8.788;2022-08-19T09:27:08;38.30;;;20.50;;
50815;SDS011;39717;47.324;8.788;2022-08-19T09:29:34;41.93;;;20.63;;
50815;SDS011;39717;47.324;8.788;2022-08-19T09:32:00;39.97;;;21.23;;
50815;SDS011;39717;47.324;8.788;2022-08-19T09:34:26;39.40;;;18.93;;
50815;SDS011;39717;47.324;8.788;2022-08-19T09:36:54;38.13;;;20.47;;
50815;SDS011;39717;47.324;8.788;2022-08-19T09:39:23;33.13;;;18.20;;
50815;SDS011;39717;47.324;8.788;2022-08-19T09:41:49;42.23;;;21.50;;
50815;SDS011;39717;47.324;8.788;2022-08-19T09:44:14;46.53;;;23.10;;
50815;SDS011;39717;47.324;8.788;2022-08-19T09:46:41;43.33;;;22.27;;
50815;SDS011;39717;47.324;8.788;2022-08-19T09:49:07;37.90;;;19.67;;
50815;SDS011;39717;47.324;8.788;2022-08-19T09:51:33;37.87;;;20.13;;
50815;SDS011;39717;47.324;8.788;2022-08-19T09:54:03;44.63;;;22.40;;
50815;SDS011;39717;47.324;8.788;2022-08-19T09:56:30;39.53;;;20.20;;
50815;SDS011;39717;47.324;8.788;2022-08-19T09:59:00;40.20;;;20.07;;
50815;SDS011;39717;47.324;8.788;2022-08-19T10:01:28;41.53;;;21.33;;
50815;SDS011;39717;47.324;8.788;2022-08-19T10:03:55;41.20;;;21.80;;
50815;SDS011;39717;47.324;8.788;2022-08-19T10:06:22;46.73;;;21.30;;
50815;SDS011;39717;47.324;8.788;2022-08-19T10:08:49;40.17;;;21.23;;
50815;SDS011;39717;47.324;8.788;2022-08-19T10:11:17;37.53;;;21.17;;
50815;SDS011;39717;47.324;8.788;2022-08-19T10:13:43;46.43;;;20.97;;
50815;SDS011;39717;47.324;8.788;2022-08-19T10:16:14;46.40;;;22.27;;
50815;SDS011;39717;47.324;8.788;2022-08-19T10:18:41;47.53;;;22.60;;
50815;SDS011;39717;47.324;8.788;2022-08-19T10:21:13;47.60;;;23.83;;
50815;SDS011;39717;47.324;8.788;2022-08-19T10:23:40;45.27;;;21.63;;
50815;SDS011;39717;47.324;8.788;2022-08-19T10:26:10;52.00;;;23.83;;
50815;SDS011;39717;47.324;8.788;2022-08-19T10:28:36;46.10;;;23.00;;
50815;SDS011;39717;47.324;8.788;2022-08-19T10:31:04;47.33;;;22.23;;
50815;SDS011;39717;47.324;8.788;2022-08-19T10:33:31;50.03;;;23.93;;
50815;SDS011;39717;47.324;8.788;2022-08-19T10:35:58;47.10;;;22.70;;
50815;SDS011;39717;47.324;8.788;2022-08-19T10:38:25;47.77;;;22.60;;
50815;SDS011;39717;47.324;8.788;2022-08-19T10:40:51;46.57;;;22.50;;
50815;SDS011;39717;47.324;8.788;2022-08-19T10:43:18;45.77;;;20.97;;
50815;SDS011;39717;47.324;8.788;2022-08-19T10:45:48;45.37;;;21.03;;
50815;SDS011;39717;47.324;8.788;2022-08-19T10:48:14;46.60;;;21.23;;
50815;SDS011;39717;47.324;8.788;2022-08-19T10:50:40;40.67;;;20.07;;
50815;SDS011;39717;47.324;8.788;2022-08-19T10:53:25;49.43;;;21.03;;
50815;SDS011;39717;47.324;8.788;2022-08-19T10:55:51;47.93;;;20.07;;
50815;SDS011;39717;47.324;8.788;2022-08-19T10:58:36;43.53;;;20.53;;
50815;SDS011;39717;47.324;8.788;2022-08-19T11:01:02;43.93;;;18.90;;
50815;SDS011;39717;47.324;8.788;2022-08-19T11:03:28;38.50;;;18.10;;
50815;SDS011;39717;47.324;8.788;2022-08-19T11:06:03;43.13;;;17.93;;
50815;SDS011;39717;47.324;8.788;2022-08-19T11:08:29;49.47;;;19.80;;
50815;SDS011;39717;47.324;8.788;2022-08-19T11:10:57;38.23;;;17.50;;
50815;SDS011;39717;47.324;8.788;2022-08-19T11:13:26;37.63;;;17.60;;
50815;SDS011;39717;47.324;8.788;2022-08-19T11:18:24;40.13;;;16.67;;
50815;SDS011;39717;47.324;8.788;2022-08-19T11:20:51;39.77;;;20.97;;
50815;SDS011;39717;47.324;8.788;2022-08-19T11:23:17;48.50;;;22.87;;
50815;SDS011;39717;47.324;8.788;2022-08-19T11:25:44;45.80;;;22.63;;
50815;SDS011;39717;47.324;8.788;2022-08-19T11:28:10;44.83;;;20.83;;
50815;SDS011;39717;47.324;8.788;2022-08-19T11:30:37;46.70;;;22.90;;
50815;SDS011;39717;47.324;8.788;2022-08-19T11:33:04;44.87;;;21.10;;
50815;SDS011;39717;47.324;8.788;2022-08-19T11:35:31;43.27;;;21.60;;
50815;SDS011;39717;47.324;8.788;2022-08-19T11:37:58;50.03;;;21.10;;
50815;SDS011;39717;47.324;8.788;2022-08-19T11:40:27;46.47;;;21.37;;
50815;SDS011;39717;47.324;8.788;2022-08-19T11:42:53;47.33;;;21.37;;
50815;SDS011;39717;47.324;8.788;2022-08-19T11:45:20;57.60;;;22.73;;
50815;SDS011;39717;47.324;8.788;2022-08-19T11:47:47;47.87;;;20.50;;
50815;SDS011;39717;47.324;8.788;2022-08-19T11:50:13;47.33;;;20.83;;
50815;SDS011;39717;47.324;8.788;2022-08-19T11:52:40;44.47;;;19.87;;
50815;SDS011;39717;47.324;8.788;2022-08-19T11:55:06;43.40;;;20.70;;
50815;SDS011;39717;47.324;8.788;2022-08-19T11:57:32;37.27;;;18.83;;
50815;SDS011;39717;47.324;8.788;2022-08-19T11:59:59;39.40;;;16.17;;
50815;SDS011;39717;47.324;8.788;2022-08-19T12:02:26;39.37;;;18.23;;
50815;SDS011;39717;47.324;8.788;2022-08-19T12:04:52;50.23;;;22.10;;
50815;SDS011;39717;47.324;8.788;2022-08-19T12:07:19;43.00;;;18.63;;
50815;SDS011;39717;47.324;8.788;2022-08-19T12:09:45;43.30;;;19.40;;
50815;SDS011;39717;47.324;8.788;2022-08-19T12:12:11;42.13;;;19.13;;
50815;SDS011;39717;47.324;8.788;2022-08-19T12:14:37;40.90;;;19.83;;
50815;SDS011;39717;47.324;8.788;2022-08-19T12:17:04;42.87;;;20.00;;
50815;SDS011;39717;47.324;8.788;2022-08-19T12:19:32;47.90;;;20.57;;
50815;SDS011;39717;47.324;8.788;2022-08-19T12:22:00;50.53;;;22.13;;
50815;SDS011;39717;47.324;8.788;2022-08-19T12:24:30;52.80;;;22.77;;
50815;SDS011;39717;47.324;8.788;2022-08-19T12:26:57;54.70;;;25.83;;
50815;SDS011;39717;47.324;8.788;2022-08-19T12:29:26;47.57;;;22.53;;
50815;SDS011;39717;47.324;8.788;2022-08-19T12:31:53;170.40;;;38.53;;
50815;SDS011;39717;47.324;8.788;2022-08-19T12:34:25;37.93;;;23.50;;
50815;SDS011;39717;47.324;8.788;2022-08-19T12:36:55;38.57;;;23.83;;
50815;SDS011;39717;47.324;8.788;2022-08-19T12:39:21;46.13;;;26.43;;
50815;SDS011;39717;47.324;8.788;2022-08-19T12:41:47;46.13;;;25.40;;
50815;SDS011;39717;47.324;8.788;2022-08-19T12:44:14;39.73;;;23.20;;
50815;SDS011;39717;47.324;8.788;2022-08-19T12:46:40;43.53;;;23.90;;
50815;SDS011;39717;47.324;8.788;2022-08-19T12:49:06;43.00;;;23.53;;
50815;SDS011;39717;47.324;8.788;2022-08-19T12:51:32;48.67;;;25.30;;
50815;SDS011;39717;47.324;8.788;2022-08-19T12:53:58;51.23;;;25.07;;
50815;SDS011;39717;47.324;8.788;2022-08-19T12:56:24;50.97;;;25.20;;
50815;SDS011;39717;47.324;8.788;2022-08-19T12:58:50;38.73;;;23.97;;
50815;SDS011;39717;47.324;8.788;2022-08-19T13:01:17;42.53;;;23.37;;
50815;SDS011;39717;47.324;8.788;2022-08-19T13:03:44;41.83;;;22.77;;
50815;SDS011;39717;47.324;8.788;2022-08-19T13:06:11;40.77;;;22.70;;
50815;SDS011;39717;47.324;8.788;2022-08-19T13:08:37;40.63;;;21.60;;
50815;SDS011;39717;47.324;8.788;2022-08-19T13:11:11;41.23;;;21.73;;
50815;SDS011;39717;47.324;8.788;2022-08-19T13:13:39;38.93;;;21.57;;
50815;SDS011;39717;47.324;8.788;2022-08-19T13:16:06;33.67;;;20.13;;
50815;SDS011;39717;47.324;8.788;2022-08-19T13:18:33;38.23;;;21.80;;
50815;SDS011;39717;47.324;8.788;2022-08-19T13:21:02;33.47;;;19.00;;
50815;SDS011;39717;47.324;8.788;2022-08-19T13:23:29;59.17;;;27.23;;
50815;SDS011;39717;47.324;8.788;2022-08-19T13:25:59;111.47;;;44.50;;
50815;SDS011;39717;47.324;8.788;2022-08-19T13:28:27;86.60;;;40.47;;
50815;SDS011;39717;47.324;8.788;2022-08-19T13:31:17;80.00;;;38.47;;
50815;SDS011;39717;47.324;8.788;2022-08-19T13:34:02;66.00;;;34.03;;
50815;SDS011;39717;47.324;8.788;2022-08-19T13:36:28;298.70;;;99.53;;
50815;SDS011;39717;47.324;8.788;2022-08-19T13:38:55;96.87;;;41.40;;
50815;SDS011;39717;47.324;8.788;2022-08-19T13:41:21;148.27;;;41.00;;
50815;SDS011;39717;47.324;8.788;2022-08-19T13:43:48;378.77;;;147.23;;
50815;SDS011;39717;47.324;8.788;2022-08-19T13:46:14;83.37;;;38.77;;
50815;SDS011;39717;47.324;8.788;2022-08-19T13:48:40;117.13;;;39.67;;
50815;SDS011;39717;47.324;8.788;2022-08-19T13:51:07;67.10;;;35.83;;
50815;SDS011;39717;47.324;8.788;2022-08-19T13:53:37;74.37;;;34.40;;
50815;SDS011;39717;47.324;8.788;2022-08-19T13:56:15;61.37;;;33.27;;
50815;SDS011;39717;47.324;8.788;2022-08-19T13:58:41;61.03;;;31.93;;
50815;SDS011;39717;47.324;8.788;2022-08-19T14:01:08;59.10;;;34.07;;
50815;SDS011;39717;47.324;8.788;2022-08-19T14:03:35;57.63;;;32.70;;
50815;SDS011;39717;47.324;8.788;2022-08-19T14:06:01;69.33;;;35.80;;
50815;SDS011;39717;47.324;8.788;2022-08-19T14:08:28;60.83;;;34.57;;
50815;SDS011;39717;47.324;8.788;2022-08-19T14:10:57;54.63;;;32.20;;
50815;SDS011;39717;47.324;8.788;2022-08-19T14:13:24;50.03;;;31.20;;
50815;SDS011;39717;47.324;8.788;2022-08-19T14:15:51;56.13;;;34.20;;
50815;SDS011;39717;47.324;8.788;2022-08-19T14:18:18;53.63;;;33.97;;
50815;SDS011;39717;47.324;8.788;2022-08-19T14:20:44;46.87;;;31.47;;
50815;SDS011;39717;47.324;8.788;2022-08-19T14:23:10;56.37;;;32.70;;
50815;SDS011;39717;47.324;8.788;2022-08-19T14:25:37;51.93;;;31.73;;
50815;SDS011;39717;47.324;8.788;2022-08-19T14:28:04;50.03;;;31.93;;
50815;SDS011;39717;47.324;8.788;2022-08-19T14:30:32;90.57;;;34.23;;
50815;SDS011;39717;47.324;8.788;2022-08-19T14:32:59;51.80;;;32.03;;
50815;SDS011;39717;47.324;8.788;2022-08-19T14:35:27;57.00;;;33.40;;
50815;SDS011;39717;47.324;8.788;2022-08-19T14:37:54;49.00;;;32.10;;
50815;SDS011;39717;47.324;8.788;2022-08-19T14:40:23;56.27;;;34.40;;